Time;durP1;ratioP1;P1;durP2;ratioP2;P2;SDS_P1;SDS_P2;PMS_P1;PMS_P2;Temp;Humidity;BMP_temperature;BMP_pressure;BME280_temperature;BME280_humidity;BME280_pressure;Samples;Min_cycle;Max_cycle;Signal;HPM_P1;HPM_P2
2023/10/08 00:01:28;;;;;;;;;;;10.70;69.90;;;;;;5167496;22;19963;-81
2023/10/08 00:03:49;;;;;;;;;;;10.70;69.90;;;;;;5190292;22;19917;-82
2023/10/08 00:06:12;;;;;;;;;;;10.70;69.90;;;;;;5191041;22;19918;-83
2023/10/08 00:08:32;;;;;;;;;;;10.60;69.80;;;;;;5190557;22;19964;-82
2023/10/08 00:10:51;;;;;;;;;;;10.70;69.80;;;;;;5189750;22;19957;-83
2023/10/08 00:13:12;;;;;;;;;;;10.60;69.80;;;;;;5186648;22;19910;-82
2023/10/08 00:15:32;;;;;;;;;;;10.60;69.70;;;;;;5188453;22;19922;-81
2023/10/08 00:17:52;;;;;;;;;;;10.60;69.80;;;;;;5189835;22;19967;-82
2023/10/08 00:20:25;;;;;;;;;;;10.60;69.80;;;;;;5184585;22;19929;-82
2023/10/08 00:22:44;;;;;;;;;;;10.60;69.80;;;;;;5180717;22;20405;-82
2023/10/08 00:25:11;;;;;;;;;;;10.60;70.50;;;;;;5188116;22;19954;-83
2023/10/08 00:27:38;;;;;;;;;;;10.60;69.70;;;;;;5165252;22;19986;-82
2023/10/08 00:30:00;;;;;;;;;;;10.60;69.70;;;;;;5186438;22;19929;-83
2023/10/08 00:32:21;;;;;;;;;;;10.60;69.80;;;;;;5183377;22;19953;-81
2023/10/08 00:34:43;;;;;;;;;;;10.60;70.50;;;;;;5186655;22;19934;-83
2023/10/08 00:37:02;;;;;;;;;;;10.60;69.80;;;;;;5198510;22;19961;-82
2023/10/08 00:39:26;;;;;;;;;;;10.60;70.50;;;;;;5190207;22;19909;-82
2023/10/08 00:41:45;;;;;;;;;;;10.50;70.40;;;;;;5188601;22;19968;-82
2023/10/08 00:44:08;;;;;;;;;;;10.50;69.60;;;;;;5166024;22;19974;-82
2023/10/08 00:46:32;;;;;;;;;;;10.50;70.40;;;;;;5164126;22;20042;-83
2023/10/08 00:48:54;;;;;;;;;;;10.50;70.40;;;;;;5183750;22;19914;-84
2023/10/08 00:51:26;;;;;;;;;;;10.60;69.80;;;;;;5185949;22;19918;-83
2023/10/08 00:53:45;;;;;;;;;;;10.60;69.80;;;;;;5164736;22;19910;-83
2023/10/08 00:56:11;;;;;;;;;;;10.60;69.90;;;;;;5185145;22;19909;-83
2023/10/08 00:58:33;;;;;;;;;;;10.50;69.80;;;;;;5164241;22;19977;-82
2023/10/08 01:00:59;;;;;;;;;;;10.70;69.90;;;;;;5186346;22;19975;-84
2023/10/08 01:03:19;;;;;;;;;;;10.70;69.90;;;;;;5184107;22;19966;-83
2023/10/08 01:05:47;;;;;;;;;;;10.60;69.80;;;;;;5186600;22;19917;-83
2023/10/08 01:08:07;;;;;;;;;;;10.70;69.80;;;;;;5194744;22;19921;-82
2023/10/08 01:10:26;;;;;;;;;;;10.60;69.70;;;;;;5210102;22;19910;-82
2023/10/08 01:13:05;;;;;;;;;;;10.50;69.60;;;;;;5189501;22;19914;-82
2023/10/08 01:15:28;;;;;;;;;;;10.60;69.70;;;;;;5185262;22;19922;-83
2023/10/08 01:18:05;;;;;;;;;;;10.50;69.60;;;;;;5190544;22;20505;-84
2023/10/08 01:21:04;;;;;;;;;;;10.60;69.70;;;;;;5192254;22;19914;-83
2023/10/08 01:23:19;;;;;;;;;;;10.60;69.70;;;;;;5185600;22;19938;-82
2023/10/08 01:25:39;;;;;;;;;;;10.50;69.60;;;;;;5168288;22;20010;-84
2023/10/08 01:28:08;;;;;;;;;;;10.50;69.50;;;;;;5165153;22;19970;-83
2023/10/08 01:30:34;;;;;;;;;;;10.40;69.40;;;;;;5188435;22;19914;-83
2023/10/08 01:32:53;;;;;;;;;;;10.40;69.40;;;;;;5186003;22;19990;-83
2023/10/08 01:35:22;;;;;;;;;;;10.40;69.40;;;;;;5186627;22;19925;-83
2023/10/08 01:37:41;;;;;;;;;;;10.40;69.40;;;;;;5164902;22;19911;-82
2023/10/08 01:40:03;;;;;;;;;;;10.40;69.40;;;;;;5166504;22;19958;-82
2023/10/08 01:42:23;;;;;;;;;;;10.30;69.40;;;;;;5189659;22;20394;-82
2023/10/08 01:45:09;;;;;;;;;;;10.30;69.40;;;;;;5166757;22;19919;-82
2023/10/08 01:47:30;;;;;;;;;;;10.30;70.10;;;;;;5042127;23;19976;-84
2023/10/08 01:49:49;;;;;;;;;;;10.20;69.30;;;;;;5062383;23;20586;-83
2023/10/08 01:52:17;;;;;;;;;;;10.30;69.40;;;;;;5062416;23;20429;-83
2023/10/08 01:54:37;;;;;;;;;;;10.20;69.40;;;;;;5058225;23;20269;-82
2023/10/08 01:56:56;;;;;;;;;;;10.30;69.60;;;;;;5062804;23;19982;-83
2023/10/08 01:59:15;;;;;;;;;;;10.20;69.50;;;;;;5063394;23;19962;-83
2023/10/08 02:01:35;;;;;;;;;;;10.10;69.40;;;;;;5062847;23;19912;-82
2023/10/08 02:03:54;;;;;;;;;;;10.10;70.30;;;;;;5061168;23;20453;-82
2023/10/08 02:06:14;;;;;;;;;;;10.00;69.60;;;;;;5060710;23;19919;-83
2023/10/08 02:08:33;;;;;;;;;;;10.10;69.70;;;;;;5061088;23;19916;-82
2023/10/08 02:10:52;;;;;;;;;;;10.00;69.60;;;;;;5059976;23;19964;-83
2023/10/08 02:13:13;;;;;;;;;;;10.00;69.70;;;;;;5059163;23;19933;-82
2023/10/08 02:15:32;;;;;;;;;;;10.00;69.70;;;;;;5038038;23;19983;-82
2023/10/08 02:17:51;;;;;;;;;;;10.00;69.80;;;;;;5059926;23;19988;-83
2023/10/08 02:20:12;;;;;;;;;;;10.00;69.80;;;;;;5059299;23;19956;-82
2023/10/08 02:22:32;;;;;;;;;;;9.90;70.50;;;;;;5055292;23;20284;-82
2023/10/08 02:24:53;;;;;;;;;;;10.00;70.70;;;;;;5147925;22;20180;-82
2023/10/08 02:27:15;;;;;;;;;;;9.80;69.80;;;;;;5186022;22;19918;-82
2023/10/08 02:29:34;;;;;;;;;;;9.90;70.70;;;;;;5186257;22;19911;-83
2023/10/08 02:31:53;;;;;;;;;;;9.90;70.70;;;;;;5187212;22;20046;-83
2023/10/08 02:34:13;;;;;;;;;;;9.90;70.60;;;;;;5184956;22;19989;-82
2023/10/08 02:36:32;;;;;;;;;;;9.80;69.80;;;;;;5183512;22;19934;-83
2023/10/08 02:38:51;;;;;;;;;;;9.70;69.70;;;;;;5186545;22;19914;-82
2023/10/08 02:41:15;;;;;;;;;;;9.80;69.80;;;;;;5184810;22;20101;-83
2023/10/08 02:43:36;;;;;;;;;;;9.70;69.70;;;;;;5163930;22;19910;-83
2023/10/08 02:45:55;;;;;;;;;;;9.80;69.70;;;;;;5187142;22;19917;-83
2023/10/08 02:48:16;;;;;;;;;;;9.70;69.60;;;;;;5189207;22;20532;-83
2023/10/08 02:50:35;;;;;;;;;;;9.60;69.50;;;;;;5166868;22;19910;-83
2023/10/08 02:52:54;;;;;;;;;;;9.60;69.60;;;;;;5182924;22;19953;-82
2023/10/08 02:55:27;;;;;;;;;;;9.50;69.50;;;;;;5189156;22;19957;-83
2023/10/08 02:57:47;;;;;;;;;;;9.50;69.50;;;;;;5166909;22;19987;-82
2023/10/08 03:00:12;;;;;;;;;;;9.50;69.50;;;;;;5191833;22;20014;-83
2023/10/08 03:02:33;;;;;;;;;;;9.40;69.40;;;;;;5166587;22;19994;-83
2023/10/08 03:04:52;;;;;;;;;;;9.40;69.40;;;;;;5188746;22;19929;-83
2023/10/08 03:07:21;;;;;;;;;;;9.30;69.40;;;;;;5189297;22;19940;-82
2023/10/08 03:09:42;;;;;;;;;;;9.30;69.40;;;;;;5189621;22;19974;-82
2023/10/08 03:12:08;;;;;;;;;;;9.20;69.40;;;;;;5186251;22;19952;-83
2023/10/08 03:14:27;;;;;;;;;;;9.20;69.40;;;;;;5162780;22;20390;-82
2023/10/08 03:16:48;;;;;;;;;;;9.10;69.50;;;;;;5187615;22;19932;-82
2023/10/08 03:19:08;;;;;;;;;;;9.10;69.50;;;;;;5189057;22;19934;-83
2023/10/08 03:23:57;;;;;;;;;;;9.00;69.60;;;;;;5189402;22;19933;-83
2023/10/08 03:29:14;;;;;;;;;;;9.10;69.90;;;;;;5130208;23;20248;-82
2023/10/08 03:34:06;;;;;;;;;;;8.90;69.90;;;;;;5125908;23;20656;-83
2023/10/08 03:36:34;;;;;;;;;;;8.90;70.70;;;;;;5091746;23;20369;-83
2023/10/08 03:38:53;;;;;;;;;;;8.90;70.00;;;;;;5114780;23;19915;-83
2023/10/08 03:41:16;;;;;;;;;;;8.80;70.10;;;;;;5136381;23;19903;-83
2023/10/08 03:43:43;;;;;;;;;;;8.90;70.20;;;;;;5137185;23;19907;-82
2023/10/08 03:46:05;;;;;;;;;;;8.80;70.20;;;;;;5112428;23;19940;-83
2023/10/08 03:48:25;;;;;;;;;;;8.90;70.30;;;;;;5096201;23;19916;-83
2023/10/08 03:50:44;;;;;;;;;;;8.80;70.20;;;;;;5114106;23;20343;-83
2023/10/08 03:53:03;;;;;;;;;;;8.80;70.30;;;;;;5110670;23;19915;-83
2023/10/08 03:55:26;;;;;;;;;;;8.70;70.30;;;;;;5111422;23;19915;-83
2023/10/08 03:57:48;;;;;;;;;;;8.70;70.30;;;;;;5109476;23;19914;-83
2023/10/08 04:00:18;;;;;;;;;;;8.70;70.40;;;;;;5109782;23;20015;-83
2023/10/08 04:02:41;;;;;;;;;;;8.70;70.40;;;;;;5109192;23;20691;-83
2023/10/08 04:05:15;;;;;;;;;;;8.70;71.20;;;;;;5161732;22;19965;-83
2023/10/08 04:10:05;;;;;;;;;;;8.70;70.70;;;;;;5187876;22;19914;-83
2023/10/08 04:12:26;;;;;;;;;;;8.60;71.40;;;;;;5188375;22;19938;-83
2023/10/08 04:14:46;;;;;;;;;;;8.60;70.80;;;;;;5186022;22;20289;-81
2023/10/08 04:17:08;;;;;;;;;;;8.60;70.80;;;;;;5187897;22;19914;-82
2023/10/08 04:19:29;;;;;;;;;;;8.50;70.80;;;;;;5190283;22;19914;-82
2023/10/08 04:21:55;;;;;;;;;;;8.60;70.90;;;;;;5189005;22;20357;-83
2023/10/08 04:24:14;;;;;;;;;;;8.50;70.90;;;;;;5189432;22;19917;-82
2023/10/08 04:26:34;;;;;;;;;;;8.60;71.80;;;;;;5190703;22;19923;-82
2023/10/08 04:29:02;;;;;;;;;;;8.50;71.00;;;;;;5190672;22;19922;-83
2023/10/08 04:31:27;;;;;;;;;;;8.50;71.00;;;;;;5167427;22;20354;-83
2023/10/08 04:33:47;;;;;;;;;;;8.60;71.20;;;;;;5190331;22;19915;-83
2023/10/08 04:36:07;;;;;;;;;;;8.50;71.90;;;;;;5189904;22;20389;-83
2023/10/08 04:38:28;;;;;;;;;;;8.50;71.40;;;;;;5189252;22;20388;-82
2023/10/08 04:40:48;;;;;;;;;;;8.50;72.10;;;;;;5168054;22;19918;-83
2023/10/08 04:43:10;;;;;;;;;;;8.50;71.30;;;;;;5189414;22;19979;-83
2023/10/08 04:45:34;;;;;;;;;;;8.60;71.40;;;;;;5167532;22;20202;-82
2023/10/08 04:47:53;;;;;;;;;;;8.40;72.10;;;;;;5165275;22;19922;-83
2023/10/08 04:50:15;;;;;;;;;;;8.50;71.50;;;;;;5188251;22;19960;-82
2023/10/08 04:52:45;;;;;;;;;;;8.40;71.50;;;;;;5190112;22;19914;-82
2023/10/08 04:55:15;;;;;;;;;;;8.40;71.60;;;;;;5190336;22;19919;-82
2023/10/08 04:57:34;;;;;;;;;;;8.40;72.40;;;;;;5190096;22;19918;-81
2023/10/08 04:59:57;;;;;;;;;;;8.40;72.40;;;;;;5190325;22;19910;-83
2023/10/08 05:02:36;;;;;;;;;;;8.40;71.70;;;;;;5189429;22;19934;-82
2023/10/08 05:05:21;;;;;;;;;;;8.40;71.70;;;;;;5189875;22;19916;-82
2023/10/08 05:12:34;;;;;;;;;;;8.30;72.00;;;;;;5190438;22;19910;-83
2023/10/08 05:15:21;;;;;;;;;;;8.30;72.00;;;;;;5187787;22;20014;-83
2023/10/08 05:17:56;;;;;;;;;;;8.40;72.20;;;;;;5189413;22;19961;-82
2023/10/08 05:20:29;;;;;;;;;;;8.40;72.40;;;;;;5188315;22;19957;-83
2023/10/08 05:22:55;;;;;;;;;;;8.40;72.30;;;;;;5166155;22;19926;-82
2023/10/08 05:27:56;;;;;;;;;;;8.30;72.20;;;;;;5187314;22;20338;-83
2023/10/08 05:30:24;;;;;;;;;;;8.40;72.40;;;;;;5186241;22;20509;-82
2023/10/08 05:35:48;;;;;;;;;;;8.30;73.20;;;;;;5187683;22;20300;-83
2023/10/08 05:38:23;;;;;;;;;;;8.40;72.60;;;;;;5187960;22;19930;-82
2023/10/08 05:43:37;;;;;;;;;;;8.40;72.90;;;;;;5203793;22;19918;-84
2023/10/08 05:46:35;;;;;;;;;;;8.30;72.90;;;;;;5193546;22;20662;-83
2023/10/08 05:48:45;;;;;;;;;;;8.20;73.00;;;;;;5188507;22;19919;-83
2023/10/08 05:51:13;;;;;;;;;;;8.30;73.90;;;;;;5182155;22;19960;-82
2023/10/08 05:53:45;;;;;;;;;;;8.20;73.30;;;;;;5187899;22;19957;-83
2023/10/08 05:56:16;;;;;;;;;;;8.30;73.40;;;;;;5188700;22;20370;-84
2023/10/08 05:58:45;;;;;;;;;;;8.30;73.40;;;;;;5164393;22;20019;-82
2023/10/08 06:01:09;;;;;;;;;;;8.20;73.10;;;;;;5187431;22;19914;-83
2023/10/08 06:03:47;;;;;;;;;;;8.20;72.90;;;;;;5186995;22;20002;-81
2023/10/08 06:12:06;;;;;;;;;;;8.20;72.30;;;;;;5164056;22;19914;-82
2023/10/08 06:14:13;;;;;;;;;;;8.10;72.10;;;;;;5190464;22;19965;-83
2023/10/08 06:16:41;;;;;;;;;;;8.10;72.10;;;;;;5187611;22;19934;-83
2023/10/08 06:19:00;;;;;;;;;;;8.10;72.20;;;;;;5189672;22;19913;-82
2023/10/08 06:21:20;;;;;;;;;;;8.10;72.30;;;;;;5188689;22;19974;-82
2023/10/08 06:23:41;;;;;;;;;;;8.10;72.30;;;;;;5189668;22;19980;-82
2023/10/08 06:28:29;;;;;;;;;;;7.90;72.40;;;;;;5188980;22;19918;-81
2023/10/08 06:30:49;;;;;;;;;;;8.10;72.60;;;;;;5187675;22;20065;-84
2023/10/08 06:33:09;;;;;;;;;;;8.10;73.50;;;;;;5188919;22;19933;-82
2023/10/08 06:35:28;;;;;;;;;;;8.00;72.90;;;;;;5187575;22;19918;-81
2023/10/08 06:37:49;;;;;;;;;;;8.00;73.00;;;;;;5182393;22;19910;-84
2023/10/08 06:40:30;;;;;;;;;;;8.00;73.10;;;;;;5163579;22;19958;-84
2023/10/08 06:42:51;;;;;;;;;;;8.00;73.10;;;;;;5186109;22;20306;-85
2023/10/08 06:45:14;;;;;;;;;;;8.10;73.30;;;;;;5185369;22;19969;-84
2023/10/08 06:47:33;;;;;;;;;;;8.10;74.20;;;;;;5184451;22;19976;-84
2023/10/08 06:49:52;;;;;;;;;;;8.10;74.30;;;;;;5185091;22;20544;-84
2023/10/08 06:52:13;;;;;;;;;;;8.10;73.70;;;;;;5183905;22;19910;-84
2023/10/08 06:54:35;;;;;;;;;;;8.20;73.90;;;;;;5183021;22;19914;-81
2023/10/08 06:56:55;;;;;;;;;;;8.20;74.20;;;;;;5179879;22;19914;-82
2023/10/08 06:59:14;;;;;;;;;;;8.30;74.50;;;;;;5184663;22;19914;-85
2023/10/08 07:01:45;;;;;;;;;;;8.30;74.80;;;;;;5184650;22;19918;-86
2023/10/08 07:04:06;;;;;;;;;;;8.40;75.60;;;;;;5186069;22;19980;-86
2023/10/08 07:06:25;;;;;;;;;;;8.40;75.50;;;;;;5184465;22;20605;-82
2023/10/08 07:08:46;;;;;;;;;;;8.60;75.80;;;;;;5183305;22;20410;-84
2023/10/08 07:11:06;;;;;;;;;;;8.70;76.00;;;;;;5184723;22;20035;-83
2023/10/08 07:13:29;;;;;;;;;;;8.60;75.90;;;;;;5186164;22;19910;-82
2023/10/08 07:15:49;;;;;;;;;;;8.70;76.00;;;;;;5183400;22;20428;-83
2023/10/08 07:18:09;;;;;;;;;;;8.80;76.10;;;;;;5186574;22;19995;-83
2023/10/08 07:20:28;;;;;;;;;;;9.00;76.30;;;;;;5182873;22;19982;-83
2023/10/08 07:22:54;;;;;;;;;;;9.00;76.40;;;;;;5184011;22;20270;-83
2023/10/08 07:25:20;;;;;;;;;;;9.00;76.50;;;;;;5186844;22;19957;-83
2023/10/08 07:27:39;;;;;;;;;;;9.10;76.90;;;;;;5161963;22;19938;-82
2023/10/08 07:30:01;;;;;;;;;;;9.20;76.60;;;;;;5188326;22;19969;-83
2023/10/08 07:32:21;;;;;;;;;;;9.30;76.60;;;;;;5179806;22;19914;-83
2023/10/08 07:36:29;;;;;;;;;;;9.50;76.90;;;;;;5185343;22;19986;-84
2023/10/08 07:38:30;;;;;;;;;;;9.40;76.50;;;;;;5157836;23;19934;-83
2023/10/08 07:40:30;;;;;;;;;;;9.50;76.70;;;;;;5183927;22;19911;-84
2023/10/08 07:42:31;;;;;;;;;;;9.50;76.70;;;;;;5180970;22;19914;-83
2023/10/08 07:44:41;;;;;;;;;;;9.60;76.70;;;;;;5155578;23;20244;-83
2023/10/08 07:46:41;;;;;;;;;;;9.60;76.80;;;;;;5153549;23;19912;-83
2023/10/08 07:48:42;;;;;;;;;;;9.80;76.90;;;;;;5187535;22;19982;-84
2023/10/08 07:50:45;;;;;;;;;;;9.80;76.90;;;;;;5182671;22;19907;-83
2023/10/08 07:52:45;;;;;;;;;;;10.00;77.00;;;;;;5155390;22;19908;-83
2023/10/08 07:54:47;;;;;;;;;;;10.00;77.30;;;;;;5183743;22;19914;-83
2023/10/08 07:56:48;;;;;;;;;;;10.00;78.00;;;;;;5155997;23;19912;-84
2023/10/08 07:58:48;;;;;;;;;;;10.00;77.10;;;;;;5157401;23;19918;-84
2023/10/08 08:00:52;;;;;;;;;;;10.10;77.20;;;;;;5154259;23;19912;-84
2023/10/08 08:02:54;;;;;;;;;;;10.10;76.90;;;;;;5153311;22;19907;-84
2023/10/08 08:04:56;;;;;;;;;;;10.20;77.00;;;;;;5180330;22;19907;-83
2023/10/08 08:06:57;;;;;;;;;;;10.30;76.60;;;;;;5199166;22;19970;-85
2023/10/08 08:08:57;;;;;;;;;;;10.30;76.70;;;;;;5204166;22;19896;-86
2023/10/08 08:11:11;;;;;;;;;;;10.30;76.50;;;;;;5184655;22;19993;-84
2023/10/08 08:13:14;;;;;;;;;;;10.40;75.90;;;;;;5184122;22;19907;-84
2023/10/08 08:15:15;;;;;;;;;;;10.50;76.20;;;;;;5157362;23;19943;-83
2023/10/08 08:17:15;;;;;;;;;;;10.50;76.00;;;;;;5185807;22;19907;-85
2023/10/08 08:19:17;;;;;;;;;;;10.60;76.10;;;;;;5185735;22;20240;-84
2023/10/08 08:21:19;;;;;;;;;;;10.60;75.80;;;;;;5183126;22;20654;-84
2023/10/08 08:23:21;;;;;;;;;;;10.80;75.80;;;;;;5183874;22;19977;-85
2023/10/08 08:25:34;;;;;;;;;;;10.80;75.70;;;;;;5159675;23;19942;-84
2023/10/08 08:27:38;;;;;;;;;;;10.80;75.60;;;;;;5185830;22;19965;-84
2023/10/08 08:29:45;;;;;;;;;;;10.80;75.40;;;;;;5184998;22;19911;-84
2023/10/08 08:31:46;;;;;;;;;;;10.90;75.10;;;;;;5185775;22;19907;-84
2023/10/08 08:33:52;;;;;;;;;;;11.00;75.10;;;;;;5156718;22;20064;-85
2023/10/08 08:36:05;;;;;;;;;;;11.00;75.00;;;;;;5157278;23;19966;-86
2023/10/08 08:38:08;;;;;;;;;;;11.10;74.60;;;;;;5182824;22;20481;-84
2023/10/08 08:40:17;;;;;;;;;;;11.20;74.50;;;;;;5186327;22;19945;-84
2023/10/08 08:42:21;;;;;;;;;;;11.10;74.10;;;;;;5158610;22;19907;-84
2023/10/08 08:44:23;;;;;;;;;;;11.30;72.00;;;;;;5156520;23;19918;-84
2023/10/08 08:46:43;;;;;;;;;;;11.30;72.20;;;;;;5129535;23;19911;-83
2023/10/08 08:48:47;;;;;;;;;;;11.30;72.00;;;;;;5183807;22;19934;-84
2023/10/08 08:50:48;;;;;;;;;;;11.40;71.20;;;;;;5158803;23;19907;-86
2023/10/08 08:52:51;;;;;;;;;;;11.50;71.00;;;;;;5158132;22;19915;-84
2023/10/08 08:54:52;;;;;;;;;;;11.50;70.00;;;;;;5176938;22;19911;-84
2023/10/08 08:56:54;;;;;;;;;;;11.60;70.30;;;;;;5186135;22;20188;-84
2023/10/08 08:58:55;;;;;;;;;;;11.70;70.00;;;;;;5184968;22;19998;-84
2023/10/08 09:00:56;;;;;;;;;;;11.70;69.90;;;;;;5160540;23;19915;-86
2023/10/08 09:03:04;;;;;;;;;;;11.80;67.30;;;;;;5175497;22;19903;-86
2023/10/08 09:05:34;;;;;;;;;;;11.80;65.10;;;;;;5209420;22;19926;-83
2023/10/08 09:07:37;;;;;;;;;;;11.80;65.50;;;;;;5185305;22;19910;-84
2023/10/08 09:09:39;;;;;;;;;;;11.80;65.70;;;;;;5168457;23;19927;-85
2023/10/08 09:11:42;;;;;;;;;;;12.00;66.40;;;;;;5129466;23;20389;-85
2023/10/08 09:13:43;;;;;;;;;;;12.00;64.30;;;;;;5153737;23;19904;-84
2023/10/08 09:15:46;;;;;;;;;;;12.00;61.20;;;;;;5191116;22;19969;-85
2023/10/08 09:17:49;;;;;;;;;;;12.10;61.50;;;;;;5161520;23;20843;-85
2023/10/08 09:20:00;;;;;;;;;;;12.10;62.50;;;;;;5183823;22;20027;-85
2023/10/08 09:22:03;;;;;;;;;;;12.10;62.80;;;;;;5157020;22;20249;-84
2023/10/08 09:24:18;;;;;;;;;;;12.10;63.50;;;;;;5182135;22;19973;-85
2023/10/08 09:26:39;;;;;;;;;;;12.20;64.50;;;;;;5161814;22;20354;-85
2023/10/08 09:29:01;;;;;;;;;;;12.30;64.50;;;;;;5184631;22;19907;-85
2023/10/08 09:31:23;;;;;;;;;;;12.40;64.10;;;;;;5184887;22;19907;-85
2023/10/08 09:33:53;;;;;;;;;;;12.40;64.90;;;;;;5185291;22;19907;-84
2023/10/08 09:36:18;;;;;;;;;;;12.40;65.00;;;;;;5159452;22;19990;-85
2023/10/08 09:38:38;;;;;;;;;;;12.40;63.60;;;;;;5185006;22;19914;-85
2023/10/08 09:41:02;;;;;;;;;;;12.50;63.40;;;;;;5187343;22;20011;-84
2023/10/08 09:43:24;;;;;;;;;;;12.50;63.60;;;;;;5187210;22;19914;-84
2023/10/08 09:45:47;;;;;;;;;;;12.40;61.90;;;;;;5188776;22;19978;-84
2023/10/08 09:48:11;;;;;;;;;;;12.50;59.60;;;;;;5187516;22;19961;-84
2023/10/08 09:50:33;;;;;;;;;;;12.50;60.80;;;;;;5163427;22;19912;-84
2023/10/08 09:52:59;;;;;;;;;;;12.50;59.60;;;;;;5184531;22;19907;-83
2023/10/08 09:55:20;;;;;;;;;;;12.60;60.70;;;;;;5185337;22;19911;-85
2023/10/08 09:57:41;;;;;;;;;;;12.60;58.40;;;;;;5185602;22;19908;-84
2023/10/08 10:00:04;;;;;;;;;;;12.50;58.00;;;;;;5186888;22;19978;-84
2023/10/08 10:02:27;;;;;;;;;;;12.50;55.00;;;;;;5187313;22;19915;-83
2023/10/08 10:04:51;;;;;;;;;;;12.70;56.00;;;;;;5186601;22;19949;-83
2023/10/08 10:07:16;;;;;;;;;;;12.70;55.90;;;;;;5163989;22;19915;-84
2023/10/08 10:09:37;;;;;;;;;;;12.70;54.00;;;;;;5164888;22;19908;-84
2023/10/08 10:11:57;;;;;;;;;;;12.80;53.70;;;;;;5185476;22;19907;-84
2023/10/08 10:14:18;;;;;;;;;;;12.80;51.90;;;;;;5185386;22;19911;-85
2023/10/08 10:16:41;;;;;;;;;;;12.90;54.50;;;;;;5187005;22;19950;-85
2023/10/08 10:19:02;;;;;;;;;;;12.90;56.10;;;;;;5164340;22;19943;-85
2023/10/08 10:21:26;;;;;;;;;;;12.90;57.40;;;;;;5186593;22;19978;-85
2023/10/08 10:23:53;;;;;;;;;;;12.90;56.60;;;;;;5164355;22;19974;-84
2023/10/08 10:26:34;;;;;;;;;;;12.90;57.10;;;;;;5185768;22;19962;-85
2023/10/08 10:29:32;;;;;;;;;;;13.00;58.30;;;;;;5186185;22;19915;-85
2023/10/08 10:31:54;;;;;;;;;;;13.10;58.50;;;;;;5042010;23;19909;-84
2023/10/08 10:34:18;;;;;;;;;;;13.10;53.80;;;;;;5062009;23;19909;-83
2023/10/08 10:36:39;;;;;;;;;;;13.20;55.50;;;;;;5060327;23;20169;-83
2023/10/08 10:39:01;;;;;;;;;;;13.20;53.80;;;;;;5062182;23;19945;-83
2023/10/08 10:41:22;;;;;;;;;;;13.20;56.20;;;;;;5062224;23;19909;-84
2023/10/08 10:43:52;;;;;;;;;;;13.40;56.30;;;;;;5061890;23;19932;-83
2023/10/08 10:46:31;;;;;;;;;;;13.40;55.20;;;;;;5041309;23;20000;-83
2023/10/08 10:49:17;;;;;;;;;;;13.50;53.10;;;;;;5041310;23;19909;-84
2023/10/08 10:51:41;;;;;;;;;;;13.40;47.20;;;;;;5042149;23;19912;-83
2023/10/08 10:54:07;;;;;;;;;;;13.40;52.00;;;;;;5072532;23;19919;-84
2023/10/08 10:56:29;;;;;;;;;;;13.50;48.10;;;;;;5087205;23;19924;-82
2023/10/08 10:58:53;;;;;;;;;;;13.50;51.00;;;;;;5067583;23;19992;-84
2023/10/08 11:01:23;;;;;;;;;;;13.40;50.50;;;;;;5057501;23;20544;-83
2023/10/08 11:04:05;;;;;;;;;;;13.50;49.00;;;;;;5060729;23;20454;-86
2023/10/08 11:06:22;;;;;;;;;;;13.50;49.20;;;;;;5160590;22;20006;-84
2023/10/08 11:08:46;;;;;;;;;;;13.50;47.80;;;;;;5185370;22;19914;-84
2023/10/08 11:11:05;;;;;;;;;;;13.50;47.60;;;;;;5182144;22;20669;-83
2023/10/08 11:13:28;;;;;;;;;;;13.50;49.80;;;;;;5183967;22;19914;-84
2023/10/08 11:15:51;;;;;;;;;;;13.50;50.90;;;;;;5183320;22;19942;-84
2023/10/08 11:18:11;;;;;;;;;;;13.60;48.20;;;;;;5159006;22;19987;-83
2023/10/08 11:20:32;;;;;;;;;;;13.60;44.50;;;;;;5181538;22;19934;-84
2023/10/08 11:22:53;;;;;;;;;;;13.50;44.30;;;;;;5181819;22;20366;-85
2023/10/08 11:25:24;;;;;;;;;;;13.50;43.00;;;;;;5162497;22;19946;-86
2023/10/08 11:27:45;;;;;;;;;;;13.50;45.70;;;;;;5181418;22;20406;-85
2023/10/08 11:30:10;;;;;;;;;;;13.50;47.90;;;;;;5186313;22;19934;-84
2023/10/08 11:32:32;;;;;;;;;;;13.50;47.80;;;;;;5181644;22;19961;-84
2023/10/08 11:35:15;;;;;;;;;;;13.50;46.10;;;;;;5184384;22;20345;-84
2023/10/08 11:37:34;;;;;;;;;;;13.50;47.80;;;;;;5186306;22;20325;-82
2023/10/08 11:39:57;;;;;;;;;;;13.60;49.00;;;;;;5184247;22;19914;-84
2023/10/08 11:42:39;;;;;;;;;;;13.60;48.80;;;;;;5161575;22;20017;-84
2023/10/08 11:44:55;;;;;;;;;;;13.70;43.80;;;;;;5185830;22;19933;-83
2023/10/08 11:47:21;;;;;;;;;;;13.70;47.40;;;;;;5184204;22;19921;-85
2023/10/08 11:49:47;;;;;;;;;;;13.70;47.30;;;;;;5185955;22;19915;-83
2023/10/08 11:52:06;;;;;;;;;;;13.60;47.40;;;;;;5184249;22;20503;-84
2023/10/08 11:54:27;;;;;;;;;;;13.70;50.20;;;;;;5183832;22;19914;-84
2023/10/08 11:56:47;;;;;;;;;;;13.70;43.70;;;;;;5184389;22;19950;-85
2023/10/08 11:59:08;;;;;;;;;;;13.70;44.00;;;;;;5185356;22;19971;-85
2023/10/08 12:01:27;;;;;;;;;;;13.70;43.80;;;;;;5182239;22;20303;-84
2023/10/08 12:03:49;;;;;;;;;;;13.70;44.90;;;;;;5184997;22;20385;-85
2023/10/08 12:06:15;;;;;;;;;;;13.70;42.90;;;;;;5183044;22;19918;-84
2023/10/08 12:08:39;;;;;;;;;;;13.70;44.00;;;;;;5162265;22;20290;-83
2023/10/08 12:11:00;;;;;;;;;;;13.80;44.50;;;;;;5184556;22;20461;-84
2023/10/08 12:13:23;;;;;;;;;;;13.70;44.90;;;;;;5160669;22;19910;-84
2023/10/08 12:15:44;;;;;;;;;;;13.70;45.20;;;;;;5183329;22;19926;-84
2023/10/08 12:18:24;;;;;;;;;;;13.80;45.80;;;;;;5185755;22;19946;-83
2023/10/08 12:20:47;;;;;;;;;;;13.80;46.20;;;;;;5183986;22;19915;-84
2023/10/08 12:23:10;;;;;;;;;;;13.70;45.80;;;;;;5183049;22;20389;-83
2023/10/08 12:25:32;;;;;;;;;;;13.70;46.50;;;;;;5185656;22;19957;-84
2023/10/08 12:27:51;;;;;;;;;;;13.80;47.90;;;;;;5186609;22;19934;-84
2023/10/08 12:30:10;;;;;;;;;;;13.80;46.10;;;;;;5162368;22;20422;-83
2023/10/08 12:32:30;;;;;;;;;;;13.80;46.40;;;;;;5182342;22;19917;-83
2023/10/08 12:34:51;;;;;;;;;;;13.80;47.50;;;;;;5184687;22;20710;-83
2023/10/08 12:37:14;;;;;;;;;;;13.80;48.60;;;;;;5184469;22;19915;-83
2023/10/08 12:39:43;;;;;;;;;;;14.00;49.80;;;;;;5184981;22;19914;-83
2023/10/08 12:42:05;;;;;;;;;;;13.90;49.80;;;;;;5162194;22;19914;-84
2023/10/08 12:44:24;;;;;;;;;;;14.00;50.80;;;;;;5185364;22;20625;-84
2023/10/08 12:46:43;;;;;;;;;;;14.00;50.00;;;;;;5185864;22;19918;-83
2023/10/08 12:49:03;;;;;;;;;;;14.10;50.10;;;;;;5187040;22;19992;-84
2023/10/08 12:51:25;;;;;;;;;;;14.10;49.40;;;;;;5185196;22;20397;-84
2023/10/08 12:53:50;;;;;;;;;;;14.10;48.40;;;;;;5185236;22;19915;-84
2023/10/08 12:56:14;;;;;;;;;;;14.20;48.90;;;;;;5186562;22;19918;-83
2023/10/08 12:58:53;;;;;;;;;;;14.20;49.90;;;;;;5184018;22;20338;-83
2023/10/08 13:01:13;;;;;;;;;;;14.20;49.10;;;;;;5163300;22;19915;-83
2023/10/08 13:03:32;;;;;;;;;;;14.20;49.60;;;;;;5184818;22;19938;-84
2023/10/08 13:05:52;;;;;;;;;;;14.20;51.50;;;;;;5186274;22;19914;-84
2023/10/08 13:08:13;;;;;;;;;;;14.30;52.00;;;;;;5185562;22;19919;-83
2023/10/08 13:10:32;;;;;;;;;;;14.30;52.20;;;;;;5184807;22;19915;-84
2023/10/08 13:12:51;;;;;;;;;;;14.30;52.50;;;;;;5185137;22;19914;-84
2023/10/08 13:15:12;;;;;;;;;;;14.20;51.80;;;;;;5185702;22;19934;-84
2023/10/08 13:17:31;;;;;;;;;;;14.20;51.70;;;;;;5186848;22;19910;-84
2023/10/08 13:19:52;;;;;;;;;;;14.30;51.40;;;;;;5163245;22;20426;-83
2023/10/08 13:22:19;;;;;;;;;;;14.30;51.10;;;;;;5160291;22;20314;-84
2023/10/08 13:24:41;;;;;;;;;;;14.30;50.90;;;;;;5184355;22;19910;-84
2023/10/08 13:27:00;;;;;;;;;;;14.30;50.60;;;;;;5185663;22;19963;-84
2023/10/08 13:29:19;;;;;;;;;;;14.20;51.60;;;;;;5186291;22;19953;-84
2023/10/08 13:31:38;;;;;;;;;;;14.30;51.10;;;;;;5182082;22;19979;-84
2023/10/08 13:34:02;;;;;;;;;;;14.30;52.10;;;;;;5184168;22;19914;-83
2023/10/08 13:36:22;;;;;;;;;;;14.30;52.50;;;;;;5190007;22;19930;-84
2023/10/08 13:38:40;;;;;;;;;;;14.30;52.60;;;;;;5213005;22;21124;-83
2023/10/08 13:41:14;;;;;;;;;;;14.30;52.20;;;;;;5200642;22;19918;-84
2023/10/08 13:43:33;;;;;;;;;;;14.20;52.00;;;;;;5188069;22;19941;-83
2023/10/08 13:45:53;;;;;;;;;;;14.30;52.40;;;;;;5190895;22;20310;-84
2023/10/08 13:48:13;;;;;;;;;;;14.20;52.40;;;;;;5191069;22;20192;-83
2023/10/08 13:50:35;;;;;;;;;;;14.30;52.70;;;;;;5189699;22;19914;-85
2023/10/08 13:52:55;;;;;;;;;;;14.30;52.20;;;;;;5188627;22;19918;-84
2023/10/08 13:55:16;;;;;;;;;;;14.20;51.70;;;;;;5188396;22;20370;-83
2023/10/08 13:57:35;;;;;;;;;;;14.10;52.10;;;;;;5189277;22;19910;-84
2023/10/08 13:59:56;;;;;;;;;;;14.10;52.40;;;;;;5188859;22;19961;-84
2023/10/08 14:02:15;;;;;;;;;;;14.10;51.90;;;;;;5188687;22;19950;-84
2023/10/08 14:04:39;;;;;;;;;;;14.10;51.50;;;;;;5195597;22;19922;-86
2023/10/08 14:06:59;;;;;;;;;;;14.10;51.20;;;;;;5213893;22;19928;-85
2023/10/08 14:09:22;;;;;;;;;;;14.10;51.50;;;;;;5216258;22;20384;-86
2023/10/08 14:11:41;;;;;;;;;;;14.00;51.80;;;;;;5211816;22;19914;-85
2023/10/08 14:14:07;;;;;;;;;;;14.00;51.70;;;;;;5189123;22;19914;-85
2023/10/08 14:16:28;;;;;;;;;;;14.00;51.60;;;;;;5188507;22;19918;-85